createdAt,value
2022-08-04T00:00:37.163Z,2.83
2022-08-04T00:03:23.223Z,2.90
2022-08-04T00:06:12.919Z,2.83
2022-08-04T00:08:49.494Z,2.70
2022-08-04T00:11:17.067Z,3.10
2022-08-04T00:13:58.071Z,2.67
2022-08-04T00:16:13.239Z,3.17
2022-08-04T00:18:40.821Z,2.60
2022-08-04T00:21:09.193Z,2.80
2022-08-04T00:24:12.336Z,2.80
2022-08-04T00:26:04.385Z,2.80
2022-08-04T00:28:31.970Z,2.77
2022-08-04T00:30:59.582Z,2.63
2022-08-04T00:33:27.156Z,2.90
2022-08-04T00:35:54.862Z,2.70
2022-08-04T00:38:23.644Z,2.90
2022-08-04T00:41:09.927Z,2.90
2022-08-04T00:43:43.044Z,2.60
2022-08-04T00:46:20.251Z,3.27
2022-08-04T00:49:08.851Z,3.00
2022-08-04T00:51:42.137Z,2.40
2022-08-04T00:54:12.563Z,2.70
2022-08-04T00:56:52.208Z,2.73
2022-08-04T00:59:34.651Z,2.60
2022-08-04T01:02:18.657Z,2.83
2022-08-04T01:04:46.231Z,3.17
2022-08-04T01:07:22.429Z,3.00
2022-08-04T01:10:05.236Z,2.73
2022-08-04T01:13:01.640Z,2.73
2022-08-04T01:15:59.632Z,3.00
2022-08-04T01:18:42.257Z,3.10
2022-08-04T01:21:47.768Z,2.83
2022-08-04T01:24:24.589Z,2.87
2022-08-04T01:26:58.669Z,2.80
2022-08-04T01:29:27.458Z,3.00
2022-08-04T01:31:56.233Z,2.70
2022-08-04T01:34:24.205Z,2.80
2022-08-04T01:36:51.834Z,3.37
2022-08-04T01:39:38.153Z,3.20
2022-08-04T01:42:05.737Z,2.93
2022-08-04T01:44:33.321Z,3.37
2022-08-04T01:47:00.936Z,3.00
2022-08-04T01:49:40.418Z,3.67
2022-08-04T01:52:01.469Z,4.93
2022-08-04T01:54:29.063Z,4.60
2022-08-04T01:56:56.657Z,3.80
2022-08-04T01:59:24.976Z,3.70
2022-08-04T02:01:52.683Z,3.40
2022-08-04T02:04:23.345Z,3.50
2022-08-04T02:06:53.506Z,3.10
2022-08-04T02:09:24.169Z,3.65
2022-08-04T02:12:06.443Z,3.63
2022-08-04T02:14:42.546Z,3.77
2022-08-04T02:17:13.173Z,4.10
2022-08-04T02:19:56.564Z,3.43
2022-08-04T02:22:24.139Z,3.40
2022-08-04T02:24:51.712Z,3.23
2022-08-04T02:27:19.498Z,3.10
2022-08-04T02:29:46.910Z,3.30
2022-08-04T02:32:27.136Z,3.33
2022-08-04T02:34:54.719Z,3.10
2022-08-04T02:37:22.514Z,3.03
2022-08-04T02:39:49.934Z,3.70
2022-08-04T02:42:17.513Z,3.00
2022-08-04T02:44:45.043Z,3.17
2022-08-04T02:47:12.682Z,2.83
2022-08-04T02:49:41.225Z,3.20
2022-08-04T02:52:07.795Z,2.97
2022-08-04T02:54:35.420Z,3.17
2022-08-04T02:57:07.989Z,2.97
2022-08-04T02:59:31.344Z,3.00
2022-08-04T03:01:59.707Z,3.42
2022-08-04T03:04:48.578Z,2.90
2022-08-04T03:07:54.955Z,3.50
2022-08-04T03:10:38.058Z,3.27
2022-08-04T03:13:29.783Z,3.67
2022-08-04T03:16:03.416Z,3.85
2022-08-04T03:18:53.108Z,3.50
2022-08-04T03:21:41.714Z,3.60
2022-08-04T03:24:30.181Z,3.07
2022-08-04T03:26:58.533Z,3.17
2022-08-04T03:30:03.129Z,3.13
2022-08-04T03:32:33.355Z,3.20
2022-08-04T03:35:31.856Z,3.07
2022-08-04T03:38:14.434Z,3.43
2022-08-04T03:41:10.694Z,3.30
2022-08-04T03:43:59.106Z,3.03
2022-08-04T03:46:41.706Z,3.03
2022-08-04T03:49:28.283Z,3.10
2022-08-04T03:52:20.305Z,3.20
2022-08-04T03:54:59.625Z,2.83
2022-08-04T03:57:39.330Z,3.33
2022-08-04T04:00:10.055Z,2.93
2022-08-04T04:02:53.367Z,3.37
2022-08-04T04:06:00.458Z,2.80
2022-08-04T04:08:12.577Z,2.90
2022-08-04T04:10:55.289Z,3.03
2022-08-04T04:13:41.522Z,2.87
2022-08-04T04:16:15.067Z,2.90
2022-08-04T04:18:54.312Z,3.20
2022-08-04T04:21:28.345Z,3.73
2022-08-04T04:24:14.096Z,3.20
2022-08-04T04:26:49.230Z,3.30
2022-08-04T04:29:34.656Z,3.10
2022-08-04T04:32:05.165Z,3.03
2022-08-04T04:34:35.446Z,3.60
2022-08-04T04:37:15.082Z,3.60
2022-08-04T04:40:07.035Z,3.77
2022-08-04T04:42:36.700Z,3.70
2022-08-04T04:45:06.741Z,3.60
2022-08-04T04:48:08.595Z,4.65
2022-08-04T04:50:36.994Z,3.92
2022-08-04T04:53:10.364Z,3.27
2022-08-04T04:55:42.992Z,3.00
2022-08-04T04:58:08.979Z,3.70
2022-08-04T05:01:12.885Z,3.60
2022-08-04T05:04:17.088Z,3.80
2022-08-04T05:06:44.711Z,3.40
2022-08-04T05:09:49.641Z,3.33
2022-08-04T05:14:26.378Z,3.60
2022-08-04T05:15:05.869Z,3.60
2022-08-04T05:17:39.037Z,3.27
2022-08-04T05:20:07.408Z,4.03
2022-08-04T05:22:34.983Z,4.10
2022-08-04T05:25:05.580Z,3.90
2022-08-04T05:27:51.172Z,3.67
2022-08-04T05:30:19.513Z,4.00
2022-08-04T05:32:59.090Z,3.50
2022-08-04T05:36:15.980Z,5.23
2022-08-04T05:38:01.507Z,4.80
2022-08-04T05:40:19.558Z,4.67
2022-08-04T05:42:47.163Z,4.20
2022-08-04T05:45:14.737Z,3.90
2022-08-04T05:47:43.078Z,4.00
2022-08-04T05:50:10.682Z,4.00
2022-08-04T05:52:39.034Z,4.20
2022-08-04T05:55:06.814Z,4.30
2022-08-04T05:57:34.467Z,3.93
2022-08-04T06:00:10.486Z,4.07
2022-08-04T06:02:30.388Z,4.35
2022-08-04T06:04:57.987Z,3.80
2022-08-04T06:07:26.320Z,4.20
2022-08-04T06:09:53.924Z,3.87
2022-08-04T06:12:24.480Z,4.37
2022-08-04T06:14:52.083Z,4.20
2022-08-04T06:19:58.817Z,3.70
2022-08-04T06:20:00.401Z,4.57
2022-08-04T06:22:20.518Z,4.50
2022-08-04T06:24:48.097Z,3.90
2022-08-04T06:27:15.708Z,3.20
2022-08-04T06:29:50.636Z,3.00
2022-08-04T06:32:27.963Z,3.13
2022-08-04T06:34:41.263Z,2.80
2022-08-04T06:37:08.877Z,3.20
2022-08-04T06:39:37.268Z,4.00
2022-08-04T06:42:21.522Z,3.20
2022-08-04T06:44:32.377Z,3.90
2022-08-04T06:46:59.962Z,3.50
2022-08-04T06:49:27.594Z,3.40
2022-08-04T06:51:55.179Z,3.27
2022-08-04T06:54:22.745Z,2.70
2022-08-04T06:56:50.627Z,3.20
2022-08-04T06:59:18.206Z,2.90
2022-08-04T07:01:46.616Z,2.57
2022-08-04T07:04:14.173Z,3.13
2022-08-04T07:06:41.746Z,2.80
2022-08-04T07:09:09.330Z,2.70
2022-08-04T07:11:39.743Z,2.57
2022-08-04T07:14:04.518Z,2.70
2022-08-04T07:16:32.092Z,2.70
2022-08-04T07:19:09.987Z,2.50
2022-08-04T07:21:27.312Z,2.43
2022-08-04T07:23:54.893Z,2.07
2022-08-04T07:26:22.508Z,2.20
2022-08-04T07:28:50.090Z,2.17
2022-08-04T07:31:33.172Z,2.23
2022-08-04T07:33:45.284Z,2.47
2022-08-04T07:36:12.871Z,2.60
2022-08-04T07:38:50.993Z,2.93
2022-08-04T07:43:35.663Z,2.20
2022-08-04T07:46:03.237Z,2.60
2022-08-04T07:48:30.851Z,2.43
2022-08-04T07:50:58.470Z,2.33
2022-08-04T07:53:54.766Z,2.60
2022-08-04T07:55:54.420Z,2.83
2022-08-04T07:58:22.773Z,2.93
2022-08-04T08:00:50.347Z,2.80
2022-08-04T08:03:18.014Z,2.83
2022-08-04T08:06:16.493Z,2.50
2022-08-04T08:08:13.118Z,2.50
2022-08-04T08:10:40.730Z,2.50
2022-08-04T08:13:08.306Z,2.80
2022-08-04T08:15:35.890Z,2.40
2022-08-04T08:18:03.769Z,1.87
2022-08-04T08:20:31.513Z,2.55
2022-08-04T08:22:59.757Z,2.63
2022-08-04T08:25:27.318Z,2.17
2022-08-04T08:27:55.929Z,2.40
2022-08-04T08:30:22.516Z,2.50
2022-08-04T08:32:50.080Z,2.50
2022-08-04T08:35:17.653Z,2.63
2022-08-04T08:37:47.680Z,2.70
2022-08-04T08:40:40.050Z,2.47
2022-08-04T08:42:54.614Z,2.93
2022-08-04T08:45:44.293Z,2.50
2022-08-04T08:48:36.241Z,2.50
2022-08-04T08:51:07.157Z,2.40
2022-08-04T08:53:49.769Z,2.57
2022-08-04T08:56:31.392Z,2.63
2022-08-04T08:59:15.048Z,2.67
2022-08-04T09:02:04.157Z,2.30
2022-08-04T09:04:56.061Z,2.50
2022-08-04T09:07:29.696Z,2.33
2022-08-04T09:10:09.578Z,2.80
2022-08-04T09:12:52.150Z,2.60
2022-08-04T09:15:25.225Z,2.47
2022-08-04T09:17:58.274Z,2.60
2022-08-04T09:20:25.848Z,2.90
2022-08-04T09:22:59.516Z,2.75
2022-08-04T09:25:45.719Z,2.20
2022-08-04T09:28:50.743Z,2.10
2022-08-04T09:30:58.543Z,2.70
2022-08-04T09:33:44.561Z,2.20
2022-08-04T09:36:25.613Z,2.03
2022-08-04T09:39:02.578Z,2.10
2022-08-04T09:41:53.991Z,2.00
2022-08-04T09:44:49.358Z,1.97
2022-08-04T09:46:54.604Z,1.60
2022-08-04T09:49:22.498Z,1.50
2022-08-04T09:51:58.143Z,1.57
2022-08-04T09:54:42.690Z,1.98
2022-08-04T09:57:16.289Z,1.90
2022-08-04T09:59:58.800Z,1.90
2022-08-04T10:02:26.385Z,1.70
2022-08-04T10:04:54.717Z,1.40
2022-08-04T10:07:28.435Z,1.23
2022-08-04T10:09:58.687Z,1.47
2022-08-04T10:12:48.385Z,1.10
2022-08-04T10:15:21.985Z,1.63
2022-08-04T10:18:01.601Z,1.30
2022-08-04T10:20:36.559Z,1.27
2022-08-04T10:23:16.205Z,1.63
2022-08-04T10:26:07.102Z,1.10
2022-08-04T10:28:17.114Z,1.27
2022-08-04T10:30:50.698Z,1.43
2022-08-04T10:33:26.727Z,1.37
2022-08-04T10:36:07.239Z,1.20
2022-08-04T10:38:37.484Z,1.10
2022-08-04T10:41:05.817Z,0.80
2022-08-04T10:43:36.469Z,1.10
2022-08-04T10:46:19.334Z,1.00
2022-08-04T10:49:08.069Z,0.80
2022-08-04T10:51:58.380Z,1.00
2022-08-04T10:54:19.584Z,1.10
2022-08-04T10:56:53.987Z,0.90
2022-08-04T10:59:39.749Z,1.03
2022-08-04T11:02:16.536Z,1.07
2022-08-04T11:04:43.157Z,0.90
2022-08-04T11:07:10.722Z,1.00
2022-08-04T11:09:38.297Z,0.77
2022-08-04T11:12:11.541Z,1.20
2022-08-04T11:14:44.741Z,0.90
2022-08-04T11:17:12.312Z,0.82
2022-08-04T11:19:53.905Z,1.00
2022-08-04T11:22:24.465Z,0.73
2022-08-04T11:25:14.758Z,1.00
2022-08-04T11:27:57.090Z,1.07
2022-08-04T11:30:24.702Z,0.80
2022-08-04T11:33:10.146Z,1.12
2022-08-04T11:35:56.604Z,1.10
2022-08-04T11:38:39.716Z,1.10
2022-08-04T11:41:10.157Z,1.17
2022-08-04T11:44:01.627Z,1.30
2022-08-04T11:46:27.349Z,0.93
2022-08-04T11:49:16.092Z,0.80
2022-08-04T11:51:43.710Z,1.00
2022-08-04T11:54:12.057Z,1.20
2022-08-04T11:56:39.631Z,1.40
2022-08-04T11:59:07.314Z,1.00
2022-08-04T12:01:43.771Z,1.10
2022-08-04T12:04:15.292Z,1.00
2022-08-04T12:06:50.939Z,0.88
2022-08-04T12:09:34.829Z,1.00
2022-08-04T12:12:27.196Z,0.90
2022-08-04T12:15:01.230Z,0.80
2022-08-04T12:17:33.673Z,1.00
2022-08-04T12:20:03.923Z,1.15
2022-08-04T12:22:29.847Z,1.08
2022-08-04T12:24:55.662Z,0.93
2022-08-04T12:27:30.633Z,1.10
2022-08-04T12:30:57.310Z,1.23
2022-08-04T12:32:25.013Z,1.20
2022-08-04T12:34:58.708Z,1.15
2022-08-04T12:37:44.006Z,1.00
2022-08-04T12:40:27.892Z,1.17
2022-08-04T12:42:56.005Z,1.20
2022-08-04T12:45:11.062Z,1.33
2022-08-04T12:47:38.923Z,1.45
2022-08-04T12:50:06.358Z,0.95
2022-08-04T12:52:59.155Z,0.90
2022-08-04T12:55:02.302Z,1.00
2022-08-04T12:57:29.878Z,1.23
2022-08-04T12:59:58.141Z,1.05
2022-08-04T13:02:27.626Z,1.12
2022-08-04T13:04:55.169Z,1.27
2022-08-04T13:07:23.008Z,1.15
2022-08-04T13:09:50.357Z,1.40
2022-08-04T13:12:31.915Z,1.20
2022-08-04T13:14:51.718Z,1.23
2022-08-04T13:17:19.647Z,1.00
2022-08-04T13:19:50.196Z,1.20
2022-08-04T13:22:26.498Z,1.35
2022-08-04T13:25:18.155Z,1.17
2022-08-04T13:27:22.112Z,0.98
2022-08-04T13:29:59.457Z,1.40
2022-08-04T13:32:18.325Z,1.02
2022-08-04T13:34:49.182Z,1.10
2022-08-04T13:37:20.908Z,1.27
2022-08-04T13:39:55.534Z,1.20
2022-08-04T13:42:16.044Z,0.85
2022-08-04T13:44:46.356Z,1.43
2022-08-04T13:47:14.790Z,0.93
2022-08-04T13:50:01.266Z,1.20
2022-08-04T13:52:11.187Z,1.00
2022-08-04T13:54:43.639Z,1.27
2022-08-04T13:57:20.071Z,1.20
2022-08-04T13:59:47.633Z,1.33
2022-08-04T14:02:25.046Z,1.40
2022-08-04T14:04:52.629Z,1.27
2022-08-04T14:07:20.934Z,1.33
2022-08-04T14:10:03.468Z,1.37
2022-08-04T14:12:38.843Z,1.17
2022-08-04T14:14:45.969Z,1.30
2022-08-04T14:17:19.687Z,1.20
2022-08-04T14:19:50.120Z,1.17
2022-08-04T14:22:27.545Z,1.37
2022-08-04T14:25:00.722Z,1.20
2022-08-04T14:27:31.012Z,1.15
2022-08-04T14:29:58.658Z,1.10
2022-08-04T14:32:27.173Z,1.20
2022-08-04T14:34:54.542Z,1.23
2022-08-04T14:37:22.116Z,1.20
2022-08-04T14:40:18.834Z,1.30
2022-08-04T14:42:19.757Z,1.35
2022-08-04T14:44:56.871Z,1.27
2022-08-04T14:47:39.708Z,1.30
2022-08-04T14:50:07.413Z,1.15
2022-08-04T14:52:34.975Z,1.30
2022-08-04T14:55:21.088Z,1.40
2022-08-04T14:58:33.694Z,1.30
2022-08-04T15:00:28.153Z,1.25
2022-08-04T15:02:58.427Z,1.50
2022-08-04T15:05:55.577Z,1.52
2022-08-04T15:07:53.609Z,1.30
2022-08-04T15:10:21.952Z,1.30
2022-08-04T15:12:49.536Z,1.40
2022-08-04T15:15:35.804Z,1.30
2022-08-04T15:17:44.772Z,1.42
2022-08-04T15:20:12.327Z,1.08
2022-08-04T15:22:41.092Z,1.20
2022-08-04T15:25:08.824Z,1.20
2022-08-04T15:27:36.398Z,1.45
2022-08-04T15:30:04.076Z,1.65
2022-08-04T15:32:49.840Z,1.33
2022-08-04T15:35:26.593Z,1.60
2022-08-04T15:37:56.805Z,1.17
2022-08-04T15:40:33.253Z,1.30
2022-08-04T15:43:01.208Z,1.40
2022-08-04T15:46:30.750Z,1.62
2022-08-04T15:48:03.233Z,1.30
2022-08-04T15:50:30.793Z,1.77
2022-08-04T15:53:12.704Z,1.60
2022-08-04T15:55:34.438Z,1.45
2022-08-04T15:58:02.505Z,1.65
2022-08-04T16:00:30.080Z,1.70
2022-08-04T16:02:57.693Z,1.55
2022-08-04T16:05:25.276Z,1.40
2022-08-04T16:08:07.915Z,1.70
2022-08-04T16:10:38.311Z,1.40
2022-08-04T16:13:11.482Z,1.37
2022-08-04T16:15:41.865Z,1.60
2022-08-04T16:18:14.165Z,1.40
2022-08-04T16:20:37.768Z,1.67
2022-08-04T16:23:37.437Z,1.37
2022-08-04T16:25:45.062Z,1.50
2022-08-04T16:28:40.181Z,1.80
2022-08-04T16:31:07.768Z,1.63
2022-08-04T16:33:43.581Z,1.37
2022-08-04T16:36:08.077Z,1.70
2022-08-04T16:38:32.053Z,1.60
2022-08-04T16:40:59.638Z,1.57
2022-08-04T16:43:29.997Z,1.67
2022-08-04T16:46:03.297Z,1.50
2022-08-04T16:48:33.607Z,1.63
2022-08-04T16:51:07.684Z,1.50
2022-08-04T16:54:04.184Z,1.90
2022-08-04T16:56:05.507Z,1.70
2022-08-04T16:58:33.918Z,2.10
2022-08-04T17:01:10.272Z,2.03
2022-08-04T17:03:37.731Z,2.07
2022-08-04T17:06:11.036Z,1.67
2022-08-04T17:08:38.615Z,1.50
2022-08-04T17:11:06.253Z,1.60
2022-08-04T17:14:03.975Z,1.83
2022-08-04T17:16:01.533Z,1.80
2022-08-04T17:18:29.873Z,1.50
2022-08-04T17:21:01.351Z,1.80
2022-08-04T17:24:13.427Z,1.70
2022-08-04T17:26:12.098Z,1.70
2022-08-04T17:28:47.248Z,1.65
2022-08-04T17:31:05.710Z,1.98
2022-08-04T17:33:54.750Z,1.60
2022-08-04T17:36:00.908Z,1.77
2022-08-04T17:38:34.249Z,1.90
2022-08-04T17:41:18.865Z,1.73
2022-08-04T17:44:02.764Z,1.70
2022-08-04T17:46:15.953Z,1.67
2022-08-04T17:48:43.534Z,2.05
2022-08-04T17:51:17.976Z,2.00
2022-08-04T17:53:45.642Z,2.17
2022-08-04T17:56:52.002Z,2.47
2022-08-04T17:59:57.228Z,2.22
2022-08-04T18:01:52.214Z,2.10
2022-08-04T18:04:36.524Z,2.17
2022-08-04T18:07:04.109Z,2.50
2022-08-04T18:09:56.856Z,2.22
2022-08-04T18:12:02.950Z,1.80
2022-08-04T18:14:45.676Z,2.30
2022-08-04T18:17:17.969Z,2.10
2022-08-04T18:19:52.778Z,2.12
2022-08-04T18:22:27.720Z,2.47
2022-08-04T18:24:56.752Z,2.70
2022-08-04T18:27:16.354Z,4.30
2022-08-04T18:30:14.698Z,3.33
2022-08-04T18:32:11.741Z,2.58
2022-08-04T18:34:40.842Z,2.00
2022-08-04T18:38:03.314Z,2.40
2022-08-04T18:40:09.389Z,2.47
2022-08-04T18:42:04.433Z,2.57
2022-08-04T18:44:30.934Z,2.60
2022-08-04T18:46:57.262Z,3.00
2022-08-04T18:51:52.769Z,2.50
2022-08-04T18:54:20.339Z,2.30
2022-08-04T18:57:24.907Z,2.10
2022-08-04T18:59:15.911Z,1.90
2022-08-04T19:02:13.348Z,2.17
2022-08-04T19:04:32.282Z,1.70
2022-08-04T19:09:26.482Z,1.80
2022-08-04T19:11:55.497Z,1.57
2022-08-04T19:14:22.450Z,1.90
2022-08-04T19:16:50.030Z,1.73
2022-08-04T19:19:17.644Z,2.37
2022-08-04T19:24:32.030Z,2.17
2022-08-04T19:26:40.495Z,2.40
2022-08-04T19:29:08.906Z,2.07
2022-08-04T19:31:41.538Z,2.30
2022-08-04T19:34:04.845Z,2.43
2022-08-04T19:36:32.435Z,2.20
2022-08-04T19:39:00.120Z,2.13
2022-08-04T19:41:27.624Z,2.00
2022-08-04T19:43:55.206Z,1.90
2022-08-04T19:46:24.936Z,2.00
2022-08-04T19:48:59.488Z,2.10
2022-08-04T19:51:19.160Z,2.20
2022-08-04T19:53:47.513Z,2.60
2022-08-04T19:56:15.146Z,2.27
2022-08-04T19:58:42.730Z,1.95
2022-08-04T20:01:31.384Z,1.70
2022-08-04T20:04:08.349Z,1.67
2022-08-04T20:06:05.481Z,1.87
2022-08-04T20:08:33.061Z,1.67
2022-08-04T20:11:01.033Z,1.57
2022-08-04T20:13:37.063Z,1.37
2022-08-04T20:18:36.041Z,1.80
2022-08-04T20:20:52.184Z,1.80
2022-08-04T20:23:19.759Z,1.90
2022-08-04T20:25:47.433Z,1.80
2022-08-04T20:28:36.267Z,2.25
2022-08-04T20:30:42.550Z,2.40
2022-08-04T20:33:10.172Z,2.47
2022-08-04T20:35:45.871Z,2.57
2022-08-04T20:38:05.331Z,2.33
2022-08-04T20:40:33.713Z,2.60
2022-08-04T20:43:02.056Z,2.73
2022-08-04T20:45:56.762Z,2.47
2022-08-04T20:47:57.253Z,2.60
2022-08-04T20:50:29.631Z,3.00
2022-08-04T20:52:52.401Z,2.47
2022-08-04T20:55:20.024Z,2.70
2022-08-04T20:57:50.648Z,3.10
2022-08-04T21:00:15.221Z,2.93
2022-08-04T21:02:44.544Z,3.55
2022-08-04T21:05:11.236Z,3.20
2022-08-04T21:07:41.902Z,3.40
2022-08-04T21:10:07.251Z,2.80
2022-08-04T21:12:34.826Z,2.93
2022-08-04T21:15:13.939Z,4.27
2022-08-04T21:17:58.277Z,4.50
2022-08-04T21:19:59.121Z,4.27
2022-08-04T21:22:33.120Z,4.00
2022-08-04T21:24:54.879Z,4.37
2022-08-04T21:27:22.623Z,4.87
2022-08-04T21:29:50.018Z,4.77
2022-08-04T21:32:18.683Z,5.50
2022-08-04T21:34:46.265Z,6.03
2022-08-04T21:37:14.655Z,6.50
2022-08-04T21:42:28.136Z,6.72
2022-08-04T21:44:37.373Z,5.57
2022-08-04T21:47:05.241Z,6.20
2022-08-04T21:49:32.835Z,6.47
2022-08-04T21:52:07.285Z,6.90
2022-08-04T21:54:28.780Z,5.43
2022-08-04T21:56:57.128Z,6.97
2022-08-04T21:59:31.059Z,7.00
2022-08-04T22:01:54.799Z,7.72
2022-08-04T22:04:21.768Z,6.90
2022-08-04T22:06:52.261Z,6.70
2022-08-04T22:09:17.076Z,7.00
2022-08-04T22:11:50.259Z,7.30
2022-08-04T22:14:12.236Z,7.90
2022-08-04T22:16:40.617Z,7.33
2022-08-04T22:19:10.922Z,7.50
2022-08-04T22:21:39.321Z,8.03
2022-08-04T22:24:05.082Z,7.37
2022-08-04T22:26:32.655Z,7.57
2022-08-04T22:29:00.229Z,8.75
2022-08-04T22:31:27.852Z,9.20
2022-08-04T22:33:56.270Z,8.90
2022-08-04T22:36:24.669Z,8.10
2022-08-04T22:39:00.290Z,9.07
2022-08-04T22:41:19.153Z,8.43
2022-08-04T22:43:47.506Z,9.48
2022-08-04T22:46:21.470Z,8.93
2022-08-04T22:48:49.250Z,8.40
2022-08-04T22:51:17.278Z,8.97
2022-08-04T22:53:48.776Z,8.93
2022-08-04T22:56:13.833Z,9.20
2022-08-04T22:58:45.172Z,9.37
2022-08-04T23:01:10.850Z,8.57
2022-08-04T23:03:38.850Z,9.13
2022-08-04T23:06:10.481Z,10.73
2022-08-04T23:08:38.067Z,8.97
2022-08-04T23:11:08.935Z,9.60
2022-08-04T23:13:37.169Z,9.77
2022-08-04T23:16:09.696Z,9.70
2022-08-04T23:18:36.984Z,10.68
2022-08-04T23:21:05.170Z,9.90
2022-08-04T23:23:33.031Z,9.80
2022-08-04T23:26:08.523Z,9.60
2022-08-04T23:28:30.501Z,10.33
2022-08-04T23:30:58.154Z,9.97
2022-08-04T23:33:49.062Z,10.40
2022-08-04T23:35:56.512Z,10.83
2022-08-04T23:38:30.643Z,10.00
2022-08-04T23:40:55.388Z,11.13
2022-08-04T23:43:23.646Z,10.27
2022-08-04T23:46:07.786Z,10.83
2022-08-04T23:48:21.244Z,10.50
2022-08-04T23:50:49.037Z,10.13
2022-08-04T23:53:18.608Z,10.37
2022-08-04T23:55:45.139Z,10.07
2022-08-04T23:58:20.911Z,9.63
